sensor_id;sensor_type;location;lat;lon;timestamp;pressure;altitude;pressure_sealevel;temperature;humidity
50650;BME280;36621;60.058;30.346;2022-10-13T03:00:49;101859.88;;;7.37;61.88
50650;BME280;36621;60.058;30.346;2022-10-13T03:08:21;101857.78;;;7.32;62.55
50650;BME280;36621;60.058;30.346;2022-10-13T03:15:54;101856.59;;;7.28;62.30
50650;BME280;36621;60.058;30.346;2022-10-13T03:23:26;101866.41;;;7.29;62.39
50650;BME280;36621;60.058;30.346;2022-10-13T03:31:00;101873.31;;;7.25;62.40
50650;BME280;36621;60.058;30.346;2022-10-13T03:38:33;101877.56;;;7.21;62.29
50650;BME280;36621;60.058;30.346;2022-10-13T03:46:06;101874.22;;;7.19;62.31
50650;BME280;36621;60.058;30.346;2022-10-13T03:53:45;101881.13;;;7.15;62.64
50650;BME280;36621;60.058;30.346;2022-10-13T04:01:19;101885.97;;;7.12;62.75
50650;BME280;36621;60.058;30.346;2022-10-13T04:08:54;101875.56;;;7.09;62.60
50650;BME280;36621;60.058;30.346;2022-10-13T04:16:27;101880.38;;;7.07;62.62
50650;BME280;36621;60.058;30.346;2022-10-13T04:24:01;101883.94;;;7.08;62.84
50650;BME280;36621;60.058;30.346;2022-10-13T04:31:34;101881.44;;;7.06;62.53
50650;BME280;36621;60.058;30.346;2022-10-13T04:39:06;101893.09;;;7.13;62.59
50650;BME280;36621;60.058;30.346;2022-10-13T04:46:40;101897.22;;;7.16;63.28
50650;BME280;36621;60.058;30.346;2022-10-13T04:54:12;101906.38;;;7.22;62.64
50650;BME280;36621;60.058;30.346;2022-10-13T05:01:49;101905.50;;;7.28;62.93
50650;BME280;36621;60.058;30.346;2022-10-13T05:09:21;101909.41;;;7.32;62.72
50650;BME280;36621;60.058;30.346;2022-10-13T05:16:54;101910.47;;;7.31;63.06
50650;BME280;36621;60.058;30.346;2022-10-13T05:24:27;101913.44;;;7.48;62.93
50650;BME280;36621;60.058;30.346;2022-10-13T05:32:07;101916.88;;;7.62;63.06
50650;BME280;36621;60.058;30.346;2022-10-13T05:39:38;101923.84;;;7.76;63.16
50650;BME280;36621;60.058;30.346;2022-10-13T05:47:11;101918.28;;;7.90;62.59
50650;BME280;36621;60.058;30.346;2022-10-13T05:54:43;101924.88;;;8.00;62.72
50650;BME280;36621;60.058;30.346;2022-10-13T06:02:19;101926.66;;;8.07;63.41
50650;BME280;36621;60.058;30.346;2022-10-13T16:35:32;101865.09;;;10.56;55.92
50650;BME280;36621;60.058;30.346;2022-10-13T16:43:04;101852.91;;;10.47;55.99
50650;BME280;36621;60.058;30.346;2022-10-13T16:50:37;101864.00;;;10.40;56.53
50650;BME280;36621;60.058;30.346;2022-10-13T16:58:09;101850.22;;;10.35;56.42
50650;BME280;36621;60.058;30.346;2022-10-13T17:05:41;101864.34;;;10.32;56.00
50650;BME280;36621;60.058;30.346;2022-10-13T17:13:13;101852.75;;;10.24;56.87
50650;BME280;36621;60.058;30.346;2022-10-13T17:20:50;101858.28;;;10.30;57.08
50650;BME280;36621;60.058;30.346;2022-10-13T17:28:23;101847.94;;;10.43;57.25
50650;BME280;36621;60.058;30.346;2022-10-13T17:35:57;101842.25;;;10.33;56.97
50650;BME280;36621;60.058;30.346;2022-10-13T17:43:30;101840.16;;;10.23;57.31
50650;BME280;36621;60.058;30.346;2022-10-13T17:51:06;101845.13;;;10.26;57.76
50650;BME280;36621;60.058;30.346;2022-10-13T17:58:38;101842.84;;;10.47;57.80
50650;BME280;36621;60.058;30.346;2022-10-13T18:06:12;101835.97;;;10.62;57.87
50650;BME280;36621;60.058;30.346;2022-10-13T18:13:44;101827.38;;;10.70;57.85
50650;BME280;36621;60.058;30.346;2022-10-13T18:21:17;101836.97;;;10.55;58.37
50650;BME280;36621;60.058;30.346;2022-10-13T18:28:56;101841.06;;;10.41;58.55
50650;BME280;36621;60.058;30.346;2022-10-13T18:36:30;101841.81;;;10.36;58.30
50650;BME280;36621;60.058;30.346;2022-10-13T18:44:03;101845.84;;;10.34;59.13
50650;BME280;36621;60.058;30.346;2022-10-13T18:51:35;101838.03;;;10.25;58.78
50650;BME280;36621;60.058;30.346;2022-10-13T18:59:09;101840.91;;;10.19;59.29
50650;BME280;36621;60.058;30.346;2022-10-13T19:06:42;101834.75;;;10.12;59.23
50650;BME280;36621;60.058;30.346;2022-10-13T19:14:14;101826.94;;;10.03;59.55
50650;BME280;36621;60.058;30.346;2022-10-13T19:21:47;101818.41;;;10.00;60.02
50650;BME280;36621;60.058;30.346;2022-10-13T19:29:19;101817.44;;;10.06;59.76
50650;BME280;36621;60.058;30.346;2022-10-13T19:36:52;101817.44;;;10.06;60.01
50650;BME280;36621;60.058;30.346;2022-10-13T19:44:28;101821.63;;;9.97;59.92
50650;BME280;36621;60.058;30.346;2022-10-13T19:52:39;101814.41;;;9.90;60.51
50650;BME280;36621;60.058;30.346;2022-10-13T20:00:12;101813.53;;;10.02;60.71
50650;BME280;36621;60.058;30.346;2022-10-13T20:07:44;101809.63;;;10.26;60.44
50650;BME280;36621;60.058;30.346;2022-10-13T20:15:16;101807.56;;;10.46;60.76
50650;BME280;36621;60.058;30.346;2022-10-13T20:22:49;101798.97;;;10.54;60.72
50650;BME280;36621;60.058;30.346;2022-10-13T20:30:21;101806.78;;;10.62;60.61
50650;BME280;36621;60.058;30.346;2022-10-13T20:37:53;101805.53;;;10.70;61.20
50650;BME280;36621;60.058;30.346;2022-10-13T20:45:25;101808.34;;;10.75;61.05
50650;BME280;36621;60.058;30.346;2022-10-13T20:52:58;101806.94;;;10.72;61.31
50650;BME280;36621;60.058;30.346;2022-10-13T21:00:29;101812.72;;;10.76;61.10
50650;BME280;36621;60.058;30.346;2022-10-13T21:08:02;101813.38;;;10.83;60.95
50650;BME280;36621;60.058;30.346;2022-10-13T21:15:35;101812.41;;;10.89;60.98
50650;BME280;36621;60.058;30.346;2022-10-13T21:23:09;101805.13;;;10.95;61.00
50650;BME280;36621;60.058;30.346;2022-10-13T21:30:41;101806.09;;;11.06;61.03
50650;BME280;36621;60.058;30.346;2022-10-13T21:38:13;101811.06;;;11.09;60.78
50650;BME280;36621;60.058;30.346;2022-10-13T21:45:45;101806.19;;;11.11;60.79
50650;BME280;36621;60.058;30.346;2022-10-13T21:53:18;101798.81;;;11.11;60.89
50650;BME280;36621;60.058;30.346;2022-10-13T22:00:50;101805.09;;;11.12;60.79
50650;BME280;36621;60.058;30.346;2022-10-13T22:08:22;101807.34;;;11.15;60.90
50650;BME280;36621;60.058;30.346;2022-10-13T22:16:00;101795.31;;;11.16;60.86
50650;BME280;36621;60.058;30.346;2022-10-13T22:23:33;101802.97;;;11.14;61.15
50650;BME280;36621;60.058;30.346;2022-10-13T22:31:05;101802.97;;;11.14;60.71
50650;BME280;36621;60.058;30.346;2022-10-13T22:38:38;101793.44;;;11.17;60.58
50650;BME280;36621;60.058;30.346;2022-10-13T22:46:10;101799.38;;;11.13;60.77
50650;BME280;36621;60.058;30.346;2022-10-13T22:53:43;101800.78;;;11.16;60.53
50650;BME280;36621;60.058;30.346;2022-10-13T23:01:15;101795.91;;;11.18;60.65
50650;BME280;36621;60.058;30.346;2022-10-13T23:08:48;101781.41;;;11.18;60.62
50650;BME280;36621;60.058;30.346;2022-10-13T23:16:21;101778.94;;;11.16;60.70
50650;BME280;36621;60.058;30.346;2022-10-13T23:23:54;101781.00;;;11.09;60.99
50650;BME280;36621;60.058;30.346;2022-10-13T23:31:27;101781.25;;;11.07;60.86
50650;BME280;36621;60.058;30.346;2022-10-13T23:39:01;101783.19;;;11.07;60.90
50650;BME280;36621;60.058;30.346;2022-10-13T23:46:33;101783.81;;;11.14;60.72
50650;BME280;36621;60.058;30.346;2022-10-13T23:54:06;101786.63;;;11.19;60.69
